createdAt,value
2023-07-27T00:01:31.073Z,100694.03
2023-07-27T00:03:57.527Z,100698.34
2023-07-27T00:06:23.929Z,100695.47
2023-07-27T00:08:50.327Z,100688.94
2023-07-27T00:11:16.717Z,100684.59
2023-07-27T00:13:43.107Z,100689.47
2023-07-27T00:16:09.503Z,100683.78
2023-07-27T00:18:35.893Z,100689.47
2023-07-27T00:21:02.307Z,100688.66
2023-07-27T00:23:28.705Z,100685.13
2023-07-27T00:25:55.078Z,100684.34
2023-07-27T00:28:21.467Z,100682.16
2023-07-27T00:30:52.326Z,100690.72
2023-07-27T00:33:19.606Z,100692.09
2023-07-27T00:35:53.869Z,100685.63
2023-07-27T00:38:20.275Z,100683.38
2023-07-27T00:40:49.570Z,100684.22
2023-07-27T00:43:16.052Z,100686.25
2023-07-27T00:45:42.513Z,100676.97
2023-07-27T00:48:10.730Z,100680.44
2023-07-27T00:50:37.146Z,100679.03
2023-07-27T00:53:06.658Z,100685.47
2023-07-27T00:55:33.066Z,100685.38
2023-07-27T00:57:59.516Z,100683.19
2023-07-27T01:00:26.337Z,100681.59
2023-07-27T01:02:52.883Z,100678.88
2023-07-27T01:05:19.418Z,100680.38
2023-07-27T01:07:45.810Z,100671.66
2023-07-27T01:10:12.212Z,100665.81
2023-07-27T01:12:49.492Z,100681.75
2023-07-27T01:15:16.239Z,100670.16
2023-07-27T01:17:49.046Z,100679.03
2023-07-27T01:20:17.104Z,100658.13
2023-07-27T01:22:52.909Z,100666.03
2023-07-27T01:25:38.333Z,100664.53
2023-07-27T01:28:14.182Z,100657.97
2023-07-27T01:30:49.393Z,100652.84
2023-07-27T01:33:15.854Z,100648.44
2023-07-27T01:35:48.820Z,100651.22
2023-07-27T01:38:15.262Z,100644.09
2023-07-27T01:40:41.659Z,100644.88
2023-07-27T01:43:08.062Z,100647.69
2023-07-27T01:45:34.454Z,100644.00
2023-07-27T01:48:00.839Z,100651.16
2023-07-27T01:50:27.915Z,100654.03
2023-07-27T01:52:54.842Z,100645.31
2023-07-27T01:55:21.797Z,100652.50
2023-07-27T01:57:48.208Z,100649.69
2023-07-27T02:00:14.676Z,100646.81
2023-07-27T02:02:41.116Z,100643.91
2023-07-27T02:05:09.462Z,100649.78
2023-07-27T02:07:36.367Z,100648.94
2023-07-27T02:10:02.791Z,100654.78
2023-07-27T02:12:33.551Z,100654.19
2023-07-27T02:15:04.071Z,100654.84
2023-07-27T02:17:32.218Z,100658.63
2023-07-27T02:19:58.880Z,100655.66
2023-07-27T02:22:25.589Z,100650.66
2023-07-27T02:24:52.060Z,100647.63
2023-07-27T02:27:18.552Z,100643.84
2023-07-27T02:29:45.148Z,100639.38
2023-07-27T02:32:11.636Z,100642.22
2023-07-27T02:34:38.090Z,100637.94
2023-07-27T02:37:05.715Z,100637.19
2023-07-27T02:39:32.177Z,100634.31
2023-07-27T02:41:59.879Z,100635.69
2023-07-27T02:44:26.262Z,100642.16
2023-07-27T02:46:52.683Z,100635.69
2023-07-27T02:49:19.124Z,100627.75
2023-07-27T02:51:45.583Z,100626.31
2023-07-27T02:54:12.101Z,100620.63
2023-07-27T02:56:38.500Z,100628.63
2023-07-27T02:59:04.937Z,100626.41
2023-07-27T03:01:37.653Z,100634.31
2023-07-27T03:04:07.347Z,100627.66
2023-07-27T03:06:34.316Z,100629.13
2023-07-27T03:09:03.081Z,100630.53
2023-07-27T03:11:31.228Z,100633.41
2023-07-27T03:13:57.660Z,100624.69
2023-07-27T03:16:24.102Z,100630.38
2023-07-27T03:18:51.167Z,100634.59
2023-07-27T03:21:20.340Z,100635.81
2023-07-27T03:23:48.034Z,100640.13
2023-07-27T03:26:14.549Z,100634.19
2023-07-27T03:28:43.535Z,100630.00
2023-07-27T03:31:14.971Z,100626.97
2023-07-27T03:33:41.372Z,100631.78
2023-07-27T03:36:08.128Z,100640.47
2023-07-27T03:38:36.218Z,100631.09
2023-07-27T03:41:02.780Z,100632.13
2023-07-27T03:43:30.200Z,100618.72
2023-07-27T03:45:56.592Z,100621.94
2023-07-27T03:48:23.020Z,100622.84
2023-07-27T03:50:49.563Z,100615.59
2023-07-27T03:53:17.549Z,100615.44
2023-07-27T03:55:44.359Z,100609.84
2023-07-27T03:58:10.771Z,100611.16
2023-07-27T04:00:37.307Z,100606.72
2023-07-27T04:03:03.818Z,100605.38
2023-07-27T04:05:32.704Z,100603.91
2023-07-27T04:07:59.099Z,100605.31
2023-07-27T04:10:26.019Z,100614.09
2023-07-27T04:12:52.855Z,100605.22
2023-07-27T04:15:19.242Z,100611.00
2023-07-27T04:17:45.722Z,100602.44
2023-07-27T04:20:12.293Z,100597.94
2023-07-27T04:22:38.782Z,100595.03
2023-07-27T04:25:05.402Z,100605.72
2023-07-27T04:27:31.856Z,100596.53
2023-07-27T04:29:58.290Z,100602.09
2023-07-27T04:32:24.840Z,100604.91
2023-07-27T04:34:51.247Z,100603.19
2023-07-27T04:37:17.643Z,100605.31
2023-07-27T04:39:44.133Z,100606.09
2023-07-27T04:42:10.574Z,100603.28
2023-07-27T04:44:36.974Z,100591.91
2023-07-27T04:47:03.383Z,100594.56
2023-07-27T04:49:29.926Z,100598.81
2023-07-27T04:51:56.315Z,100590.44
2023-07-27T04:54:22.916Z,100600.31
2023-07-27T04:56:49.397Z,100587.38
2023-07-27T04:59:16.010Z,100593.06
2023-07-27T05:01:42.430Z,100595.66
2023-07-27T05:04:08.924Z,100593.38
2023-07-27T05:06:36.337Z,100599.72
2023-07-27T05:09:03.150Z,100591.00
2023-07-27T05:11:30.224Z,100589.00
2023-07-27T05:13:56.635Z,100583.25
2023-07-27T05:16:23.041Z,100590.00
2023-07-27T05:18:49.500Z,100596.66
2023-07-27T05:21:15.948Z,100590.16
2023-07-27T05:23:42.369Z,100590.91
2023-07-27T05:26:08.744Z,100590.91
2023-07-27T05:28:35.164Z,100589.44
2023-07-27T05:31:01.597Z,100587.03
2023-07-27T05:33:27.997Z,100581.88
2023-07-27T05:35:54.382Z,100583.78
2023-07-27T05:38:20.770Z,100586.66
2023-07-27T05:40:47.175Z,100586.56
2023-07-27T05:43:13.573Z,100584.34
2023-07-27T05:45:40.128Z,100580.09
2023-07-27T05:48:07.029Z,100581.56
2023-07-27T05:50:33.762Z,100575.06
2023-07-27T05:53:00.178Z,100578.59
2023-07-27T05:55:26.589Z,100583.94
2023-07-27T05:57:52.956Z,100577.50
2023-07-27T06:00:19.340Z,100581.56
2023-07-27T06:02:54.513Z,100568.78
2023-07-27T06:05:20.938Z,100567.38
2023-07-27T06:07:47.334Z,100562.50
2023-07-27T06:10:13.803Z,100566.66
2023-07-27T06:12:40.227Z,100567.78
2023-07-27T06:15:06.814Z,100559.13
2023-07-27T06:17:33.333Z,100561.69
2023-07-27T06:19:59.815Z,100549.53
2023-07-27T06:22:26.214Z,100561.06
2023-07-27T06:24:52.622Z,100562.66
2023-07-27T06:27:19.164Z,100565.66
2023-07-27T06:29:45.557Z,100569.94
2023-07-27T06:32:12.051Z,100569.94
2023-07-27T06:34:38.517Z,100566.84
2023-07-27T06:37:06.840Z,100566.50
2023-07-27T06:39:33.235Z,100567.06
2023-07-27T06:41:59.635Z,100561.63
2023-07-27T06:44:32.277Z,100560.47
2023-07-27T06:46:58.759Z,100570.44
2023-07-27T06:49:25.213Z,100563.19
2023-07-27T06:51:51.616Z,100555.88
2023-07-27T06:54:19.764Z,100558.97
2023-07-27T06:56:46.339Z,100554.44
2023-07-27T06:59:12.851Z,100548.88
2023-07-27T07:01:39.283Z,100555.94
2023-07-27T07:04:06.781Z,100554.03
2023-07-27T07:06:33.416Z,100552.50
2023-07-27T07:09:00.380Z,100552.03
2023-07-27T07:11:26.791Z,100550.13
2023-07-27T07:13:53.202Z,100552.75
2023-07-27T07:16:19.655Z,100545.72
2023-07-27T07:18:46.193Z,100543.78
2023-07-27T07:21:12.593Z,100544.28
2023-07-27T07:23:39.019Z,100542.25
2023-07-27T07:26:05.529Z,100553.66
2023-07-27T07:28:31.932Z,100562.94
2023-07-27T07:30:58.341Z,100571.75
2023-07-27T07:33:24.947Z,100561.75
2023-07-27T07:35:51.359Z,100558.38
2023-07-27T07:38:17.733Z,100554.94
2023-07-27T07:40:45.745Z,100548.03
2023-07-27T07:43:12.164Z,100548.97
2023-07-27T07:45:39.048Z,100543.34
2023-07-27T07:48:05.486Z,100541.13
2023-07-27T07:50:31.911Z,100546.69
2023-07-27T07:52:58.307Z,100539.50
2023-07-27T07:55:24.709Z,100542.53
2023-07-27T07:57:51.324Z,100539.94
2023-07-27T08:00:17.913Z,100534.34
2023-07-27T08:02:45.315Z,100535.94
2023-07-27T08:05:11.806Z,100528.03
2023-07-27T08:07:38.196Z,100535.44
2023-07-27T08:10:05.577Z,100522.72
2023-07-27T08:12:32.444Z,100519.75
2023-07-27T08:14:58.843Z,100521.31
2023-07-27T08:17:25.265Z,100525.66
2023-07-27T08:19:51.711Z,100517.03
2023-07-27T08:22:18.264Z,100514.59
2023-07-27T08:24:44.816Z,100511.75
2023-07-27T08:27:11.805Z,100505.75
2023-07-27T08:29:38.514Z,100499.25
2023-07-27T08:32:04.911Z,100496.06
2023-07-27T08:34:31.331Z,100483.91
2023-07-27T08:36:57.826Z,100481.16
2023-07-27T08:39:24.230Z,100482.56
2023-07-27T08:41:50.635Z,100477.53
2023-07-27T08:44:17.055Z,100477.53
2023-07-27T08:46:43.528Z,100472.13
2023-07-27T08:49:10.168Z,100468.94
2023-07-27T08:51:36.591Z,100462.56
2023-07-27T08:54:02.993Z,100457.50
2023-07-27T08:56:29.408Z,100462.50
2023-07-27T08:58:55.860Z,100452.66
2023-07-27T09:01:22.303Z,100445.06
2023-07-27T09:03:48.894Z,100452.38
2023-07-27T09:06:15.322Z,100443.59
2023-07-27T09:08:42.454Z,100453.19
2023-07-27T09:11:09.274Z,100445.75
2023-07-27T09:13:36.314Z,100449.16
2023-07-27T09:16:03.645Z,100439.88
2023-07-27T09:18:34.736Z,100451.69
2023-07-27T09:21:01.186Z,100452.28
2023-07-27T09:23:27.579Z,100443.72
2023-07-27T09:25:54.761Z,100442.25
2023-07-27T09:28:24.965Z,100449.34
2023-07-27T09:30:51.900Z,100440.63
2023-07-27T09:33:22.145Z,100440.03
2023-07-27T09:35:49.644Z,100443.59
2023-07-27T09:38:16.074Z,100443.88
2023-07-27T09:40:42.490Z,100435.50
2023-07-27T09:43:08.898Z,100430.75
2023-07-27T09:45:39.010Z,100423.75
2023-07-27T09:48:05.628Z,100418.91
2023-07-27T09:50:32.196Z,100411.22
2023-07-27T09:52:58.590Z,100404.91
2023-07-27T09:55:24.982Z,100408.66
2023-07-27T09:57:51.444Z,100412.28
2023-07-27T10:00:17.978Z,100407.28
2023-07-27T10:02:44.398Z,100406.56
2023-07-27T10:05:11.880Z,100400.75
2023-07-27T10:10:29.365Z,100407.00
2023-07-27T10:12:56.169Z,100412.72
2023-07-27T10:15:22.789Z,100407.19
2023-07-27T10:17:52.321Z,100409.69
2023-07-27T10:20:22.534Z,100417.84
2023-07-27T10:22:53.249Z,100418.25
2023-07-27T10:25:20.343Z,100431.78
2023-07-27T10:27:56.927Z,100430.31
2023-07-27T10:30:23.358Z,100442.53
2023-07-27T10:33:07.841Z,100431.78
2023-07-27T10:35:54.129Z,100428.78
2023-07-27T10:38:21.082Z,100424.06
2023-07-27T10:40:47.484Z,100418.84
2023-07-27T10:43:21.226Z,100422.97
2023-07-27T10:45:52.781Z,100419.34
2023-07-27T10:48:19.189Z,100416.03
2023-07-27T10:50:45.570Z,100421.28
2023-07-27T10:53:12.012Z,100410.06
2023-07-27T10:55:38.408Z,100412.38
2023-07-27T10:58:05.343Z,100413.06
2023-07-27T11:00:38.514Z,100405.19
2023-07-27T11:03:05.154Z,100407.16
2023-07-27T11:05:32.114Z,100398.06
2023-07-27T11:08:04.655Z,100397.19
2023-07-27T11:10:31.186Z,100396.72
2023-07-27T11:12:58.292Z,100398.06
2023-07-27T11:15:25.296Z,100393.78
2023-07-27T11:17:55.166Z,100390.75
2023-07-27T11:20:22.376Z,100388.84
2023-07-27T11:22:48.838Z,100387.09
2023-07-27T11:25:15.264Z,100384.22
2023-07-27T11:27:41.665Z,100381.44
2023-07-27T11:30:10.631Z,100367.78
2023-07-27T11:32:37.143Z,100375.69
2023-07-27T11:35:03.564Z,100378.69
2023-07-27T11:37:32.723Z,100372.03
2023-07-27T11:39:59.135Z,100363.31
2023-07-27T11:42:29.250Z,100361.84
2023-07-27T11:44:58.407Z,100354.72
2023-07-27T11:47:24.942Z,100352.25
2023-07-27T11:49:51.337Z,100351.13
2023-07-27T11:52:20.923Z,100345.91
2023-07-27T11:54:51.648Z,100344.59
2023-07-27T11:57:18.041Z,100335.13
2023-07-27T11:59:59.129Z,100342.38
2023-07-27T12:02:28.172Z,100343.91
2023-07-27T12:04:54.840Z,100339.88
2023-07-27T12:07:25.661Z,100337.41
2023-07-27T12:10:13.722Z,100331.69
2023-07-27T12:13:25.297Z,100326.00
2023-07-27T12:18:50.242Z,100323.91
2023-07-27T12:23:46.373Z,100318.34
2023-07-27T12:28:43.169Z,100323.91
2023-07-27T12:33:39.794Z,100315.81
2023-07-27T12:36:06.378Z,100307.06
2023-07-27T12:41:02.353Z,100288.34
2023-07-27T12:43:28.780Z,100288.09
2023-07-27T12:45:55.202Z,100286.28
2023-07-27T12:48:21.630Z,100292.56
2023-07-27T12:50:48.051Z,100293.00
2023-07-27T12:53:14.446Z,100293.06
2023-07-27T12:55:40.861Z,100292.94
2023-07-27T12:58:07.244Z,100290.81
2023-07-27T13:00:33.645Z,100292.50
2023-07-27T13:03:00.232Z,100292.19
2023-07-27T13:05:26.722Z,100293.63
2023-07-27T13:07:53.115Z,100290.75
2023-07-27T13:10:19.498Z,100288.09
2023-07-27T13:12:46.141Z,100289.25
2023-07-27T13:15:12.570Z,100283.50
2023-07-27T13:17:39.330Z,100282.66
2023-07-27T13:20:07.690Z,100284.84
2023-07-27T13:22:34.231Z,100279.75
2023-07-27T13:25:00.622Z,100276.31
2023-07-27T13:27:27.186Z,100283.28
2023-07-27T13:29:53.611Z,100274.69
2023-07-27T13:32:20.274Z,100275.53
2023-07-27T13:34:46.902Z,100260.44
2023-07-27T13:37:13.306Z,100258.84
2023-07-27T13:39:40.811Z,100250.25
2023-07-27T13:42:07.287Z,100243.13
2023-07-27T13:44:33.706Z,100241.41
2023-07-27T13:47:00.109Z,100244.38
2023-07-27T13:49:26.757Z,100244.38
2023-07-27T13:51:53.250Z,100240.81
2023-07-27T13:54:19.658Z,100245.88
2023-07-27T13:56:46.083Z,100240.06
2023-07-27T13:59:12.602Z,100232.94
2023-07-27T14:01:39.111Z,100243.56
2023-07-27T14:04:05.546Z,100232.06
2023-07-27T14:06:32.068Z,100233.91
2023-07-27T14:08:59.672Z,100228.25
2023-07-27T14:11:26.173Z,100232.53
2023-07-27T14:13:52.573Z,100241.81
2023-07-27T14:16:19.450Z,100237.88
2023-07-27T14:18:45.945Z,100247.78
2023-07-27T14:21:12.329Z,100249.13
2023-07-27T14:23:38.704Z,100240.41
2023-07-27T14:28:32.103Z,100238.78
2023-07-27T14:31:12.272Z,100231.72
2023-07-27T14:33:39.817Z,100233.16
2023-07-27T14:36:06.233Z,100226.00
2023-07-27T14:38:32.654Z,100227.38
2023-07-27T14:40:59.080Z,100223.59
2023-07-27T14:43:25.529Z,100207.00
2023-07-27T14:45:51.963Z,100196.94
2023-07-27T14:48:18.695Z,100195.44
2023-07-27T14:50:45.123Z,100181.16
2023-07-27T14:53:11.536Z,100169.78
2023-07-27T14:55:37.932Z,100172.59
2023-07-27T14:58:04.332Z,100162.44
2023-07-27T15:03:04.833Z,100140.72
2023-07-27T15:05:32.045Z,100142.28
2023-07-27T15:07:58.678Z,100136.44
2023-07-27T15:10:31.917Z,100127.69
2023-07-27T15:12:59.663Z,100126.31
2023-07-27T15:15:26.455Z,100131.47
2023-07-27T15:17:53.573Z,100119.69
2023-07-27T15:20:20.037Z,100133.94
2023-07-27T15:22:47.159Z,100137.53
2023-07-27T15:25:13.598Z,100128.59
2023-07-27T15:27:40.010Z,100116.94
2023-07-27T15:30:07.853Z,100123.88
2023-07-27T15:32:34.329Z,100116.53
2023-07-27T15:35:00.845Z,100110.97
2023-07-27T15:37:27.266Z,100108.81
2023-07-27T15:39:53.655Z,100109.38
2023-07-27T15:42:20.124Z,100102.81
2023-07-27T15:44:46.912Z,100103.53
2023-07-27T15:47:13.368Z,100104.88
2023-07-27T15:49:40.074Z,100109.88
2023-07-27T15:52:07.248Z,100114.91
2023-07-27T15:54:33.645Z,100109.09
2023-07-27T15:57:00.142Z,100113.41
2023-07-27T15:59:26.590Z,100108.25
2023-07-27T16:01:53.004Z,100107.53
2023-07-27T16:04:19.391Z,100098.81
2023-07-27T16:06:45.812Z,100093.03
2023-07-27T16:09:12.269Z,100088.66
2023-07-27T16:11:39.523Z,100082.88
2023-07-27T16:14:05.942Z,100087.16
2023-07-27T16:16:32.562Z,100077.06
2023-07-27T16:18:59.290Z,100082.78
2023-07-27T16:21:26.067Z,100074.13
2023-07-27T16:23:52.518Z,100066.81
2023-07-27T16:26:18.938Z,100063.97
2023-07-27T16:28:45.399Z,100063.97
2023-07-27T16:31:11.816Z,100056.75
2023-07-27T16:33:38.483Z,100061.78
2023-07-27T16:36:14.976Z,100054.53
2023-07-27T16:38:41.502Z,100053.09
2023-07-27T16:41:08.535Z,100056.59
2023-07-27T16:43:34.961Z,100055.19
2023-07-27T16:46:01.406Z,100052.97
2023-07-27T16:48:27.814Z,100040.72
2023-07-27T16:50:54.191Z,100044.94
2023-07-27T16:53:20.607Z,100042.13
2023-07-27T16:55:46.982Z,100037.78
2023-07-27T16:58:13.374Z,100037.78
2023-07-27T17:00:39.866Z,100034.16
2023-07-27T17:03:06.414Z,100036.28
2023-07-27T17:05:39.947Z,100034.84
2023-07-27T17:08:06.524Z,100043.50
2023-07-27T17:10:33.173Z,100042.03
2023-07-27T17:12:59.733Z,100040.59
2023-07-27T17:15:26.155Z,100037.66
2023-07-27T17:17:52.631Z,100030.44
2023-07-27T17:20:19.113Z,100028.97
2023-07-27T17:22:45.510Z,100026.03
2023-07-27T17:25:11.913Z,100031.06
2023-07-27T17:27:38.320Z,100010.22
2023-07-27T17:30:04.914Z,100008.72
2023-07-27T17:32:31.353Z,100013.03
2023-07-27T17:34:57.772Z,100010.16
2023-07-27T17:37:24.160Z,100007.25
2023-07-27T17:39:50.564Z,100000.78
2023-07-27T17:42:16.955Z,100010.16
2023-07-27T17:44:43.389Z,99995.69
2023-07-27T17:47:09.797Z,99997.09
2023-07-27T17:49:36.208Z,100004.34
2023-07-27T17:52:02.627Z,100002.88
2023-07-27T17:54:29.284Z,100012.94
2023-07-27T17:56:55.682Z,99995.63
2023-07-27T17:59:22.075Z,100000.66
2023-07-27T18:01:48.669Z,100006.44
2023-07-27T18:04:15.085Z,100004.22
2023-07-27T18:06:41.498Z,99999.94
2023-07-27T18:09:07.891Z,99988.34
2023-07-27T18:11:34.543Z,99986.91
2023-07-27T18:14:01.241Z,99994.13
2023-07-27T18:16:27.664Z,99986.63
2023-07-27T18:18:54.807Z,99986.63
2023-07-27T18:21:21.222Z,99988.25
2023-07-27T18:23:47.768Z,99989.84
2023-07-27T18:26:17.836Z,99994.25
2023-07-27T18:28:44.284Z,99993.41
2023-07-27T18:31:10.775Z,99988.28
2023-07-27T18:33:37.175Z,99988.28
2023-07-27T18:36:15.842Z,99981.03
2023-07-27T18:38:43.413Z,99980.97
2023-07-27T18:41:10.538Z,99980.97
2023-07-27T18:43:37.124Z,99981.69
2023-07-27T18:46:03.585Z,99973.72
2023-07-27T18:48:30.044Z,99986.75
2023-07-27T18:50:56.483Z,99972.25
2023-07-27T18:53:22.901Z,99970.06
2023-07-27T18:55:49.667Z,99965.00
2023-07-27T18:58:16.346Z,99974.41
2023-07-27T19:00:42.729Z,99978.03
2023-07-27T19:03:09.140Z,99977.31
2023-07-27T19:05:35.620Z,99972.25
2023-07-27T19:08:02.028Z,99975.09
2023-07-27T19:10:28.427Z,99976.56
2023-07-27T19:12:54.887Z,99976.56
2023-07-27T19:15:21.682Z,99970.06
2023-07-27T19:17:48.147Z,99975.81
2023-07-27T19:20:15.682Z,99972.22
2023-07-27T19:22:42.094Z,99977.91
2023-07-27T19:25:08.545Z,99979.31
2023-07-27T19:27:34.942Z,99976.44
2023-07-27T19:30:01.335Z,99973.56
2023-07-27T19:32:27.806Z,99980.13
2023-07-27T19:34:54.240Z,99967.84
2023-07-27T19:37:20.625Z,99972.13
2023-07-27T19:39:47.028Z,99969.91
2023-07-27T19:42:13.424Z,99972.13
2023-07-27T19:44:40.952Z,99960.59
2023-07-27T19:47:07.817Z,99950.50
2023-07-27T19:49:34.235Z,99953.38
2023-07-27T19:52:00.625Z,99951.94
2023-07-27T19:54:27.040Z,99952.63
2023-07-27T19:56:53.449Z,99961.97
2023-07-27T19:59:19.875Z,99947.56
2023-07-27T20:01:46.249Z,99938.91
2023-07-27T20:04:12.688Z,99933.13
2023-07-27T20:06:39.117Z,99940.34
2023-07-27T20:09:05.548Z,99938.97
2023-07-27T20:11:31.972Z,99946.13
2023-07-27T20:13:58.835Z,99949.00
2023-07-27T20:16:25.252Z,99939.63
2023-07-27T20:18:51.658Z,99934.59
2023-07-27T20:21:18.066Z,99938.91
2023-07-27T20:23:44.769Z,99932.38
2023-07-27T20:26:11.331Z,99933.13
2023-07-27T20:28:37.753Z,99924.50
2023-07-27T20:31:04.728Z,99926.63
2023-07-27T20:33:31.177Z,99925.88
2023-07-27T20:35:57.646Z,99924.44
2023-07-27T20:38:24.051Z,99914.34
2023-07-27T20:40:50.467Z,99907.13
2023-07-27T20:43:16.881Z,99907.13
2023-07-27T20:45:43.291Z,99914.31
2023-07-27T20:48:09.677Z,99916.50
2023-07-27T20:50:39.307Z,99916.50
2023-07-27T20:53:07.513Z,99912.91
2023-07-27T20:55:33.944Z,99914.31
2023-07-27T20:58:00.549Z,99911.41
2023-07-27T21:00:26.977Z,99905.66
2023-07-27T21:02:53.408Z,99908.53
2023-07-27T21:05:19.833Z,99911.41
2023-07-27T21:07:46.307Z,99911.47
2023-07-27T21:10:12.732Z,99904.25
2023-07-27T21:12:39.261Z,99905.66
2023-07-27T21:15:05.902Z,99898.44
2023-07-27T21:17:32.538Z,99905.66
2023-07-27T21:19:59.191Z,99909.25
2023-07-27T21:22:26.363Z,99898.44
2023-07-27T21:24:52.999Z,99899.84
2023-07-27T21:27:19.605Z,99892.66
2023-07-27T21:29:48.347Z,99887.63
2023-07-27T21:32:15.032Z,99896.22
2023-07-27T21:34:41.680Z,99891.94
2023-07-27T21:37:08.286Z,99881.13
2023-07-27T21:39:34.765Z,99872.44
2023-07-27T21:42:01.336Z,99878.19
2023-07-27T21:44:27.894Z,99871.72
2023-07-27T21:46:54.350Z,99882.53
2023-07-27T21:49:20.927Z,99875.31
2023-07-27T21:51:47.553Z,99870.97
2023-07-27T21:54:14.132Z,99885.41
2023-07-27T21:56:40.632Z,99876.72
2023-07-27T21:59:07.031Z,99872.44
2023-07-27T22:01:33.477Z,99876.00
2023-07-27T22:03:59.941Z,99865.94
2023-07-27T22:06:26.380Z,99868.13
2023-07-27T22:08:52.802Z,99865.94
2023-07-27T22:11:19.396Z,99853.66
2023-07-27T22:13:45.926Z,99859.44
2023-07-27T22:16:12.470Z,99868.06
2023-07-27T22:18:38.964Z,99865.19
2023-07-27T22:21:09.442Z,99852.94
2023-07-27T22:23:35.863Z,99855.81
2023-07-27T22:26:02.280Z,99863.75
2023-07-27T22:28:28.733Z,99869.50
2023-07-27T22:30:55.171Z,99856.53
2023-07-27T22:33:21.581Z,99848.53
2023-07-27T22:35:47.965Z,99837.75
2023-07-27T22:38:14.367Z,99836.28
2023-07-27T22:40:53.693Z,99835.53
2023-07-27T22:43:20.155Z,99839.19
2023-07-27T22:45:46.584Z,99835.53
2023-07-27T22:48:13.001Z,99831.94
2023-07-27T22:50:39.411Z,99837.03
2023-07-27T22:53:05.984Z,99821.88
2023-07-27T22:55:32.387Z,99821.19
2023-07-27T22:57:58.782Z,99823.34
2023-07-27T23:00:25.744Z,99822.56
2023-07-27T23:02:52.200Z,99817.50
2023-07-27T23:05:18.662Z,99826.13
2023-07-27T23:07:45.060Z,99831.94
2023-07-27T23:10:11.496Z,99808.88
2023-07-27T23:12:37.898Z,99824.00
2023-07-27T23:15:05.775Z,99813.19
2023-07-27T23:17:32.350Z,99811.75
2023-07-27T23:19:58.764Z,99803.09
2023-07-27T23:22:25.153Z,99804.53
2023-07-27T23:24:51.541Z,99789.41
2023-07-27T23:27:17.948Z,99797.28
2023-07-27T23:29:44.352Z,99800.94
2023-07-27T23:32:10.887Z,99792.94
2023-07-27T23:34:37.516Z,99792.28
2023-07-27T23:37:05.329Z,99797.28
2023-07-27T23:39:32.160Z,99795.84
2023-07-27T23:41:58.620Z,99774.22
2023-07-27T23:44:25.119Z,99779.25
2023-07-27T23:46:51.632Z,99792.28
2023-07-27T23:49:18.096Z,99782.19
2023-07-27T23:51:44.842Z,99785.75
2023-07-27T23:54:11.240Z,99785.75
2023-07-27T23:56:38.513Z,99774.22
2023-07-27T23:59:04.934Z,99773.50
